Time;durP1;ratioP1;P1;durP2;ratioP2;P2;SDS_P1;SDS_P2;PMS_P1;PMS_P2;Temp;Humidity;BMP_temperature;BMP_pressure;BME280_temperature;BME280_humidity;BME280_pressure;Samples;Min_cycle;Max_cycle;Signal;HPM_P1;HPM_P2
2023/04/25 00:03:20;;;;;;;6.35;1.90;;;11.80;97.20;;;;;;10393291;28;20021;-68
2023/04/25 00:08:21;;;;;;;8.07;2.10;;;11.80;97.20;;;;;;10397691;28;20017;-69
2023/04/25 00:13:22;;;;;;;4.93;2.40;;;11.80;97.20;;;;;;10389444;28;20504;-68
2023/04/25 00:18:22;;;;;;;6.40;1.95;;;11.70;97.40;;;;;;10393583;28;20400;-68
2023/04/25 00:23:23;;;;;;;5.75;1.63;;;11.70;97.20;;;;;;10392126;28;20294;-68
2023/04/25 00:28:24;;;;;;;4.68;2.10;;;11.70;97.20;;;;;;10394913;28;20505;-69
2023/04/25 00:33:25;;;;;;;6.75;2.03;;;11.60;97.20;;;;;;10398145;28;20025;-68
2023/04/25 00:38:25;;;;;;;5.20;2.00;;;11.60;97.10;;;;;;10390448;28;20133;-69
2023/04/25 00:43:27;;;;;;;5.10;1.90;;;11.60;97.10;;;;;;10410165;28;20034;-68
2023/04/25 00:48:27;;;;;;;4.30;1.60;;;11.60;97.10;;;;;;10396667;28;20040;-68
2023/04/25 00:53:29;;;;;;;4.95;1.90;;;11.60;97.10;;;;;;10398036;28;20138;-68
2023/04/25 00:58:30;;;;;;;2.88;1.52;;;11.60;97.10;;;;;;10413506;28;20399;-68
2023/04/25 01:03:35;;;;;;;7.05;1.90;;;11.60;97.10;;;;;;10397495;28;20040;-68
2023/04/25 01:08:38;;;;;;;7.50;1.95;;;11.50;97.00;;;;;;10400426;28;20053;-68
2023/04/25 01:13:38;;;;;;;6.13;1.90;;;11.50;97.00;;;;;;10391248;28;20109;-67
2023/04/25 01:18:41;;;;;;;3.85;1.80;;;11.50;97.00;;;;;;10401283;28;20170;-68
2023/04/25 01:23:42;;;;;;;3.40;1.63;;;11.50;97.00;;;;;;10405665;28;20021;-68
2023/04/25 01:28:43;;;;;;;4.03;1.70;;;11.50;97.00;;;;;;10408160;28;20452;-69
2023/04/25 01:33:44;;;;;;;4.05;1.73;;;11.40;96.90;;;;;;10397290;28;20026;-69
2023/04/25 01:38:47;;;;;;;5.45;2.00;;;11.50;97.00;;;;;;10403050;28;20025;-69
2023/04/25 01:43:47;;;;;;;5.68;1.75;;;11.40;96.90;;;;;;10406842;28;20112;-68
2023/04/25 01:48:48;;;;;;;4.90;1.40;;;11.40;96.90;;;;;;10415020;28;20021;-68
2023/04/25 01:53:49;;;;;;;7.13;2.05;;;11.40;96.90;;;;;;10416686;28;20060;-68
2023/04/25 01:58:55;;;;;;;3.78;1.60;;;11.20;96.80;;;;;;10388494;28;20556;-68
2023/04/25 02:03:56;;;;;;;6.68;1.85;;;11.40;96.90;;;;;;10392904;28;20030;-68
2023/04/25 02:08:56;;;;;;;4.88;2.22;;;11.40;96.90;;;;;;10396762;28;20037;-70
2023/04/25 02:13:57;;;;;;;5.40;2.15;;;11.40;96.80;;;;;;10391717;28;20029;-69
2023/04/25 02:18:58;;;;;;;4.53;1.80;;;11.40;96.80;;;;;;10393566;28;20040;-69
2023/04/25 02:23:59;;;;;;;5.40;1.70;;;11.30;96.80;;;;;;10404449;28;20021;-69
2023/04/25 02:29:01;;;;;;;5.05;1.75;;;11.30;96.80;;;;;;10392697;28;20040;-69
2023/04/25 02:34:01;;;;;;;8.30;1.98;;;11.30;96.80;;;;;;10390726;28;20044;-69
2023/04/25 02:39:02;;;;;;;3.08;1.67;;;11.30;96.80;;;;;;10397878;28;20041;-69
2023/04/25 02:44:03;;;;;;;5.20;2.13;;;11.30;96.70;;;;;;10385736;28;20629;-68
2023/04/25 02:49:04;;;;;;;5.82;1.77;;;11.30;96.80;;;;;;10396358;28;20044;-67
2023/04/25 02:54:06;;;;;;;4.43;1.77;;;11.30;96.70;;;;;;10383239;28;20032;-69
2023/04/25 02:59:07;;;;;;;3.40;1.50;;;11.30;96.70;;;;;;10381803;28;20124;-68
2023/04/25 03:04:07;;;;;;;4.20;1.48;;;11.20;96.70;;;;;;10390147;28;20021;-68
2023/04/25 03:09:08;;;;;;;3.70;1.50;;;11.20;96.70;;;;;;10394434;28;20477;-68
2023/04/25 03:14:08;;;;;;;5.63;1.50;;;11.20;96.70;;;;;;10386107;28;20022;-68
2023/04/25 03:19:09;;;;;;;4.82;1.65;;;11.20;96.70;;;;;;10379236;28;20017;-68
2023/04/25 03:24:10;;;;;;;4.57;1.35;;;11.20;96.70;;;;;;10394821;28;20324;-69
2023/04/25 03:29:11;;;;;;;4.20;1.70;;;11.20;96.70;;;;;;10397890;28;20246;-68
2023/04/25 03:34:14;;;;;;;2.88;1.17;;;11.20;96.70;;;;;;10392103;28;20109;-68
2023/04/25 03:39:15;;;;;;;3.92;1.80;;;11.20;96.70;;;;;;10337549;28;1788151;-68
2023/04/25 03:44:15;;;;;;;5.38;1.70;;;11.20;96.60;;;;;;10396387;28;20034;-68
2023/04/25 03:49:16;;;;;;;4.80;1.70;;;11.20;96.60;;;;;;10388628;28;20416;-68
2023/04/25 03:54:17;;;;;;;3.90;1.50;;;11.10;96.60;;;;;;10401469;28;20030;-68
2023/04/25 03:59:17;;;;;;;4.80;1.63;;;11.10;96.60;;;;;;10382231;28;20034;-68
2023/04/25 04:04:18;;;;;;;3.15;1.48;;;11.10;96.60;;;;;;10393051;28;20459;-67
2023/04/25 04:09:20;;;;;;;5.40;1.80;;;11.10;96.60;;;;;;10402116;28;20698;-68
2023/04/25 04:14:21;;;;;;;6.18;1.73;;;11.10;96.60;;;;;;10386237;28;20371;-68
2023/04/25 04:19:21;;;;;;;3.28;1.27;;;11.10;96.50;;;;;;10397131;28;20017;-67
2023/04/25 04:24:22;;;;;;;3.17;1.45;;;11.00;96.50;;;;;;10397694;28;20030;-68
2023/04/25 04:29:22;;;;;;;2.75;1.30;;;11.00;96.50;;;;;;10390968;28;20022;-67
2023/04/25 04:34:24;;;;;;;1.98;1.10;;;11.00;96.50;;;;;;10411410;28;20481;-68
2023/04/25 04:39:25;;;;;;;3.53;1.80;;;11.00;96.50;;;;;;10405026;28;20025;-67
2023/04/25 04:44:26;;;;;;;3.22;1.33;;;11.00;96.50;;;;;;10405225;28;20550;-67
2023/04/25 04:49:27;;;;;;;4.18;1.20;;;11.00;96.50;;;;;;10412780;28;20036;-68
2023/04/25 04:54:27;;;;;;;2.17;1.30;;;11.00;96.40;;;;;;10413631;28;20035;-68
2023/04/25 04:59:28;;;;;;;2.05;1.25;;;11.00;96.40;;;;;;10412914;28;20068;-68
2023/04/25 05:04:28;;;;;;;2.63;1.17;;;11.00;96.40;;;;;;10414474;28;20025;-68
2023/04/25 05:09:29;;;;;;;3.10;1.17;;;11.00;96.40;;;;;;10402462;28;20034;-68
2023/04/25 05:14:31;;;;;;;3.65;1.10;;;11.00;96.30;;;;;;10408997;28;20481;-69
2023/04/25 05:19:32;;;;;;;4.32;1.20;;;11.00;96.30;;;;;;10413454;28;20107;-67
2023/04/25 05:24:32;;;;;;;3.00;1.40;;;11.00;96.30;;;;;;10406076;28;20102;-68
2023/04/25 05:29:33;;;;;;;1.83;0.93;;;11.00;96.30;;;;;;10405706;28;20025;-68
2023/04/25 05:34:34;;;;;;;3.50;1.50;;;10.90;96.20;;;;;;10412483;28;20482;-68
2023/04/25 05:39:34;;;;;;;1.65;0.82;;;11.10;96.30;;;;;;10410718;28;20025;-68
2023/04/25 05:44:35;;;;;;;4.15;1.45;;;11.00;96.20;;;;;;10406979;28;20084;-67
2023/04/25 05:49:35;;;;;;;4.35;0.93;;;11.00;96.20;;;;;;10404918;28;20061;-68
2023/04/25 05:54:36;;;;;;;3.75;1.10;;;11.00;96.10;;;;;;10411879;28;20022;-68
2023/04/25 05:59:37;;;;;;;4.60;0.98;;;11.00;96.10;;;;;;10412315;28;20392;-68
2023/04/25 06:04:37;;;;;;;4.18;0.90;;;11.60;96.30;;;;;;10412750;28;20399;-68
2023/04/25 06:09:39;;;;;;;3.72;1.00;;;10.90;96.10;;;;;;10393671;28;20025;-67
2023/04/25 06:14:41;;;;;;;3.67;1.38;;;10.90;96.00;;;;;;10397442;28;20552;-69
2023/04/25 06:19:41;;;;;;;4.03;1.00;;;11.00;96.00;;;;;;10386360;28;20025;-67
2023/04/25 06:24:42;;;;;;;1.88;0.90;;;11.00;96.00;;;;;;10396497;28;20032;-67
2023/04/25 06:29:42;;;;;;;2.78;0.85;;;11.00;96.00;;;;;;10398121;28;20021;-68
2023/04/25 06:34:43;;;;;;;2.72;0.90;;;11.00;96.00;;;;;;10390360;28;20377;-69
2023/04/25 06:39:44;;;;;;;2.83;1.00;;;11.00;96.00;;;;;;10397439;28;20299;-68
2023/04/25 06:44:44;;;;;;;2.97;1.08;;;10.90;96.00;;;;;;10394993;28;20048;-67
2023/04/25 06:49:45;;;;;;;5.07;1.27;;;11.00;95.90;;;;;;10391707;28;20025;-68
2023/04/25 06:54:45;;;;;;;3.42;1.10;;;10.30;95.70;;;;;;10391172;28;20384;-68
2023/04/25 06:59:46;;;;;;;1.58;0.80;;;11.00;95.80;;;;;;10392156;28;20018;-68
2023/04/25 07:04:47;;;;;;;1.67;1.00;;;11.10;95.80;;;;;;10394994;28;20024;-66
2023/04/25 07:09:47;;;;;;;2.88;0.82;;;11.10;95.70;;;;;;10385565;28;20082;-68
2023/04/25 07:14:48;;;;;;;1.80;0.70;;;11.20;95.70;;;;;;10389985;28;20079;-66
2023/04/25 07:19:48;;;;;;;1.38;0.70;;;11.20;95.70;;;;;;10395077;28;20267;-66
2023/04/25 07:24:49;;;;;;;2.22;0.80;;;11.20;95.60;;;;;;10395897;28;20033;-68
2023/04/25 07:29:50;;;;;;;4.88;0.80;;;11.20;95.60;;;;;;10388596;28;20029;-67
2023/04/25 07:34:51;;;;;;;2.78;0.80;;;11.20;95.60;;;;;;10397298;28;20037;-67
2023/04/25 07:39:51;;;;;;;1.67;0.95;;;11.20;95.60;;;;;;10394846;28;20399;-68
2023/04/25 07:44:52;;;;;;;1.67;0.90;;;11.20;95.60;;;;;;10384011;28;20017;-69
2023/04/25 07:49:53;;;;;;;3.22;0.73;;;11.20;95.60;;;;;;10388126;28;20030;-68
2023/04/25 07:54:53;;;;;;;2.90;0.70;;;11.20;95.60;;;;;;10395915;28;20032;-69
2023/04/25 07:59:54;;;;;;;3.20;0.88;;;11.20;95.60;;;;;;10393775;28;20432;-69
2023/04/25 08:04:54;;;;;;;3.38;1.10;;;11.20;95.60;;;;;;10392983;28;20394;-68
2023/04/25 08:09:55;;;;;;;2.03;1.38;;;11.30;95.50;;;;;;10390036;28;20027;-68
2023/04/25 08:14:56;;;;;;;3.45;1.27;;;11.30;95.50;;;;;;10390640;28;20033;-68
2023/04/25 08:19:56;;;;;;;1.52;0.80;;;11.30;95.50;;;;;;10384041;28;20034;-69
2023/04/25 08:24:57;;;;;;;1.33;1.02;;;11.30;95.60;;;;;;10394604;28;20087;-70
2023/04/25 08:29:58;;;;;;;3.72;0.73;;;11.30;95.60;;;;;;10391174;28;20273;-69
2023/04/25 08:34:59;;;;;;;2.47;0.93;;;11.30;95.60;;;;;;10392747;28;20028;-68
2023/04/25 08:39:59;;;;;;;1.90;0.60;;;11.30;95.60;;;;;;10388218;28;20025;-69
2023/04/25 08:45:09;;;;;;;4.03;0.85;;;11.30;95.60;;;;;;10380901;28;20447;-68
2023/04/25 08:50:09;;;;;;;2.47;0.68;;;11.30;95.60;;;;;;10390890;28;20472;-68
2023/04/25 08:55:12;;;;;;;2.65;0.77;;;11.30;95.60;;;;;;10391137;28;20018;-69
2023/04/25 09:00:14;;;;;;;2.30;0.95;;;11.30;95.60;;;;;;10386187;28;20064;-68
2023/04/25 09:05:14;;;;;;;2.80;0.80;;;11.40;95.50;;;;;;10381718;28;20024;-68
2023/04/25 09:10:15;;;;;;;3.67;0.88;;;11.50;95.50;;;;;;10413654;28;20535;-68
2023/04/25 09:15:15;;;;;;;1.35;0.70;;;11.50;95.40;;;;;;10390814;28;20026;-68
2023/04/25 09:20:16;;;;;;;2.10;0.90;;;11.50;95.40;;;;;;10396200;28;20112;-68
2023/04/25 09:25:17;;;;;;;1.50;0.60;;;11.50;95.40;;;;;;10397158;28;20088;-68
2023/04/25 09:30:17;;;;;;;2.00;0.73;;;11.60;95.40;;;;;;10402552;28;20025;-68
2023/04/25 09:35:26;;;;;;;2.05;1.27;;;11.60;95.40;;;;;;10400960;28;20040;-69
2023/04/25 09:40:27;;;;;;;1.10;0.50;;;11.50;95.60;;;;;;10397119;28;20037;-68
2023/04/25 09:45:31;;;;;;;3.85;0.70;;;11.60;95.40;;;;;;10395512;28;20532;-68
2023/04/25 09:50:31;;;;;;;2.25;0.63;;;11.60;95.40;;;;;;10399577;28;20021;-68
2023/04/25 09:55:34;;;;;;;3.72;0.73;;;11.60;95.40;;;;;;10401509;28;20038;-69
2023/04/25 10:00:35;;;;;;;3.22;0.73;;;11.70;95.40;;;;;;10393438;28;20126;-69
2023/04/25 10:05:37;;;;;;;3.13;0.80;;;11.70;95.30;;;;;;10396733;28;20731;-68
2023/04/25 10:10:40;;;;;;;3.05;0.60;;;11.30;95.20;;;;;;10396920;28;20028;-69
2023/04/25 10:15:41;;;;;;;0.85;0.60;;;11.90;95.20;;;;;;10391847;28;20022;-69
2023/04/25 10:20:42;;;;;;;2.67;0.70;;;11.90;95.10;;;;;;10393496;28;20404;-69
2023/04/25 10:25:43;;;;;;;3.00;0.60;;;11.90;95.10;;;;;;10394172;28;20037;-69
2023/04/25 10:31:08;;;;;;;1.60;0.80;;;11.90;95.10;;;;;;10389916;28;20021;-69
2023/04/25 10:36:13;;;;;;;4.40;0.63;;;12.00;95.10;;;;;;10405782;28;20072;-71
2023/04/25 10:41:18;;;;;;;3.35;0.80;;;12.00;95.20;;;;;;10392272;28;20061;-67
2023/04/25 10:46:23;;;;;;;5.75;1.00;;;12.00;95.20;;;;;;10391685;28;20021;-71
2023/04/25 10:51:34;;;;;;;1.80;0.80;;;12.00;95.40;;;;;;10391545;28;20116;-70
2023/04/25 10:56:44;;;;;;;0.95;0.47;;;12.10;95.20;;;;;;10394527;28;20108;-70
2023/04/25 11:01:46;;;;;;;4.07;0.75;;;12.10;95.10;;;;;;10392779;28;20120;-69
2023/04/25 11:07:10;;;;;;;1.73;0.82;;;12.10;95.10;;;;;;10393080;28;20036;-69
2023/04/25 11:12:14;;;;;;;1.80;0.68;;;12.10;95.10;;;;;;10397038;28;20033;-69
2023/04/25 11:17:15;;;;;;;1.50;0.52;;;12.10;95.20;;;;;;10398248;28;20472;-69
2023/04/25 11:22:15;;;;;;;1.33;0.70;;;12.10;95.20;;;;;;10405432;28;20087;-70
2023/04/25 11:27:16;;;;;;;2.72;0.80;;;12.20;95.10;;;;;;10393276;28;20108;-68
2023/04/25 11:32:17;;;;;;;2.40;0.60;;;12.30;95.10;;;;;;10396091;28;20033;-70
2023/04/25 11:37:18;;;;;;;2.28;0.85;;;12.30;95.00;;;;;;10385724;28;20028;-68
2023/04/25 11:42:19;;;;;;;2.78;0.70;;;12.40;95.00;;;;;;10393373;28;20083;-68
2023/04/25 11:47:20;;;;;;;3.70;0.90;;;12.50;94.90;;;;;;10396291;28;20362;-69
2023/04/25 11:52:21;;;;;;;14.07;1.95;;;12.50;94.90;;;;;;10396926;28;20025;-69
2023/04/25 11:57:22;;;;;;;3.53;0.82;;;12.80;94.50;;;;;;10387050;28;20018;-68
2023/04/25 12:02:26;;;;;;;3.03;0.80;;;12.40;92.10;;;;;;10382772;28;20046;-69
2023/04/25 12:07:30;;;;;;;7.78;1.02;;;11.70;91.40;;;;;;10387437;28;20022;-70
2023/04/25 12:12:35;;;;;;;3.95;1.38;;;11.60;93.10;;;;;;10384398;28;20034;-69
2023/04/25 12:17:37;;;;;;;3.53;1.10;;;11.70;93.50;;;;;;10377751;28;20052;-69
2023/04/25 12:22:40;;;;;;;2.55;0.70;;;11.90;93.50;;;;;;10393726;28;20623;-69
2023/04/25 12:27:41;;;;;;;3.47;1.00;;;12.10;93.30;;;;;;10383098;28;20038;-70
2023/04/25 12:32:42;;;;;;;4.10;1.23;;;11.80;92.00;;;;;;10393505;28;20022;-71
2023/04/25 12:37:43;;;;;;;2.30;0.60;;;10.90;92.50;;;;;;10382406;28;20083;-71
2023/04/25 12:42:43;;;;;;;4.20;0.80;;;10.70;92.60;;;;;;10400144;28;20037;-71
2023/04/25 12:47:44;;;;;;;2.15;0.73;;;10.30;92.30;;;;;;10392627;28;20034;-70
2023/04/25 12:52:45;;;;;;;1.58;0.55;;;10.70;92.00;;;;;;10385943;28;20386;-71
2023/04/25 12:57:46;;;;;;;3.72;0.80;;;10.50;90.80;;;;;;10388839;28;20120;-71
2023/04/25 13:02:46;;;;;;;7.60;1.33;;;10.40;90.80;;;;;;10397233;28;20040;-70
2023/04/25 13:07:47;;;;;;;4.60;1.90;;;10.90;90.90;;;;;;10399855;28;20387;-71
2023/04/25 13:12:48;;;;;;;3.63;1.83;;;11.20;89.80;;;;;;10391077;28;20401;-70
2023/04/25 13:17:48;;;;;;;5.68;1.67;;;10.80;90.00;;;;;;10388277;28;20203;-70
2023/04/25 13:22:49;;;;;;;5.63;1.02;;;10.70;91.50;;;;;;10394839;28;20077;-69
2023/04/25 13:27:50;;;;;;;7.53;1.45;;;10.90;92.60;;;;;;10391975;28;20037;-70
2023/04/25 13:32:51;;;;;;;6.22;1.50;;;11.20;92.60;;;;;;10396611;28;20056;-71
2023/04/25 13:37:51;;;;;;;6.53;1.35;;;11.50;92.60;;;;;;10389874;28;20033;-71
2023/04/25 13:42:53;;;;;;;4.63;0.90;;;11.60;92.60;;;;;;10394884;28;20382;-71
2023/04/25 13:47:53;;;;;;;7.82;1.27;;;11.90;92.50;;;;;;10400802;28;20090;-72
2023/04/25 13:52:54;;;;;;;2.70;1.10;;;12.20;92.40;;;;;;10400346;28;20132;-71
2023/04/25 13:57:55;;;;;;;4.35;1.17;;;12.30;92.50;;;;;;10385969;28;20075;-71
2023/04/25 14:02:55;;;;;;;9.55;1.40;;;12.40;92.60;;;;;;10398671;28;20111;-71
2023/04/25 14:07:56;;;;;;;3.92;1.48;;;12.40;92.70;;;;;;10399320;28;20412;-72
2023/04/25 14:12:56;;;;;;;3.58;1.35;;;12.90;92.80;;;;;;10394587;28;20083;-71
2023/04/25 14:17:58;;;;;;;5.50;1.30;;;12.70;92.80;;;;;;10392798;28;20021;-72
2023/04/25 14:22:59;;;;;;;4.28;1.00;;;13.00;92.80;;;;;;10396974;28;20466;-72
2023/04/25 14:28:00;;;;;;;2.67;0.75;;;13.00;92.80;;;;;;10392265;28;20032;-71
2023/04/25 14:33:00;;;;;;;6.13;1.08;;;13.00;92.80;;;;;;10397022;28;20032;-69
2023/04/25 14:38:01;;;;;;;2.10;0.60;;;12.50;91.70;;;;;;10396277;28;20030;-70
2023/04/25 14:43:01;;;;;;;2.92;1.10;;;11.40;91.10;;;;;;10389887;28;20046;-74
2023/04/25 14:48:02;;;;;;;2.97;0.80;;;11.40;91.60;;;;;;10393597;28;20095;-73
2023/04/25 14:53:03;;;;;;;4.22;1.10;;;11.30;90.60;;;;;;10407436;28;20038;-73
2023/04/25 14:58:03;;;;;;;4.97;0.98;;;11.10;90.70;;;;;;10420289;28;20370;-74
2023/04/25 15:03:04;;;;;;;6.45;1.25;;;10.80;90.80;;;;;;10395404;28;20096;-73
2023/04/25 15:08:05;;;;;;;8.60;1.65;;;10.80;91.20;;;;;;10396088;28;20500;-73
2023/04/25 15:13:06;;;;;;;3.95;1.10;;;11.00;91.30;;;;;;10388432;28;20124;-73
2023/04/25 15:18:06;;;;;;;3.30;1.17;;;12.00;90.70;;;;;;10391704;28;20029;-72
2023/04/25 15:23:07;;;;;;;8.38;1.60;;;12.00;89.50;;;;;;10406121;28;20056;-71
2023/04/25 15:28:07;;;;;;;5.95;1.00;;;12.30;89.10;;;;;;10397113;28;20401;-72
2023/04/25 15:33:08;;;;;;;2.40;0.93;;;12.40;88.60;;;;;;10395918;28;20088;-74
2023/04/25 15:38:10;;;;;;;5.22;1.13;;;12.40;88.40;;;;;;10394259;28;20018;-71
2023/04/25 15:43:14;;;;;;;4.07;0.95;;;11.90;86.80;;;;;;10398645;28;20387;-70
2023/04/25 15:48:15;;;;;;;4.38;1.20;;;12.10;86.40;;;;;;10394403;28;20429;-73
2023/04/25 15:53:15;;;;;;;3.75;1.27;;;12.40;84.60;;;;;;10393215;28;20034;-73
2023/04/25 15:58:16;;;;;;;4.63;0.82;;;12.40;81.40;;;;;;10400272;28;20029;-74
2023/04/25 16:03:17;;;;;;;3.53;1.05;;;12.10;83.00;;;;;;10389827;28;20033;-71
2023/04/25 16:08:17;;;;;;;4.88;0.80;;;11.90;83.30;;;;;;10397184;28;20045;-71
2023/04/25 16:13:18;;;;;;;3.63;0.93;;;11.40;85.10;;;;;;10411325;28;20432;-71
2023/04/25 16:18:18;;;;;;;2.70;1.00;;;11.20;87.10;;;;;;10392632;28;20101;-71
2023/04/25 16:23:19;;;;;;;2.78;1.10;;;11.10;88.30;;;;;;10402214;28;20038;-70
2023/04/25 16:28:20;;;;;;;3.25;1.00;;;11.00;89.20;;;;;;10406651;28;20468;-70
2023/04/25 16:33:20;;;;;;;4.72;1.00;;;10.80;89.40;;;;;;10405896;28;20037;-70
2023/04/25 16:38:21;;;;;;;3.78;0.80;;;10.70;89.60;;;;;;10398780;28;20124;-70
2023/04/25 16:43:21;;;;;;;4.07;0.93;;;10.60;87.40;;;;;;10402519;28;20492;-70
2023/04/25 16:48:23;;;;;;;6.82;1.27;;;10.50;85.20;;;;;;10408306;28;20033;-71
2023/04/25 16:53:24;;;;;;;6.38;1.00;;;10.20;86.10;;;;;;10403668;28;20038;-70
2023/04/25 16:58:26;;;;;;;5.60;1.33;;;10.10;86.20;;;;;;10405862;28;20032;-72
2023/04/25 17:03:27;;;;;;;7.80;1.13;;;10.20;86.50;;;;;;10402730;28;20039;-70
2023/04/25 17:08:28;;;;;;;6.53;1.27;;;10.30;87.20;;;;;;10415676;28;20560;-71
2023/04/25 17:13:29;;;;;;;3.90;1.08;;;10.60;87.30;;;;;;10403387;28;20451;-70
2023/04/25 17:18:30;;;;;;;4.05;1.23;;;10.90;87.80;;;;;;10395427;28;20018;-70
2023/04/25 17:23:31;;;;;;;4.93;0.95;;;11.20;88.00;;;;;;10404416;28;20033;-70
2023/04/25 17:28:32;;;;;;;4.95;1.00;;;11.30;88.00;;;;;;10393062;28;20029;-71
2023/04/25 17:33:33;;;;;;;6.07;1.08;;;11.50;88.30;;;;;;10413762;28;20158;-70
2023/04/25 17:38:35;;;;;;;4.75;1.20;;;11.60;88.40;;;;;;10399994;28;20041;-69
2023/04/25 17:43:36;;;;;;;2.38;0.73;;;11.70;88.60;;;;;;10399527;28;20026;-69
2023/04/25 17:48:36;;;;;;;2.53;0.90;;;11.80;88.80;;;;;;10405000;28;20040;-69
2023/04/25 17:53:37;;;;;;;2.22;1.00;;;11.90;89.20;;;;;;10399434;28;20029;-70
2023/04/25 17:58:38;;;;;;;2.13;0.98;;;11.90;89.40;;;;;;10385663;28;20079;-70
2023/04/25 18:03:39;;;;;;;2.08;0.93;;;12.00;89.70;;;;;;10391654;28;20028;-70
2023/04/25 18:08:40;;;;;;;4.68;0.82;;;12.10;89.90;;;;;;10404672;28;20507;-70
2023/04/25 18:13:40;;;;;;;3.47;0.85;;;12.10;90.10;;;;;;10393048;28;20021;-70
2023/04/25 18:18:43;;;;;;;2.97;0.95;;;12.20;90.20;;;;;;10386997;28;20102;-70
2023/04/25 18:23:44;;;;;;;1.88;1.02;;;12.10;90.40;;;;;;10391249;28;20041;-70
2023/04/25 18:28:45;;;;;;;3.30;1.00;;;12.10;90.40;;;;;;10392840;28;20412;-70
2023/04/25 18:33:46;;;;;;;3.22;0.80;;;12.10;90.50;;;;;;10397810;28;20152;-70
2023/04/25 18:38:49;;;;;;;6.30;1.52;;;12.10;90.60;;;;;;10403555;28;20051;-70
2023/04/25 18:43:50;;;;;;;4.85;1.13;;;12.10;90.70;;;;;;10396301;28;20099;-70
2023/04/25 18:48:54;;;;;;;1.75;0.85;;;12.10;90.80;;;;;;10394356;28;20033;-70
2023/04/25 18:53:55;;;;;;;2.17;0.90;;;12.00;90.90;;;;;;10396108;28;20021;-70
2023/04/25 18:58:56;;;;;;;1.45;0.90;;;12.00;90.90;;;;;;10389743;28;20103;-70
2023/04/25 19:03:57;;;;;;;2.97;1.00;;;12.00;91.00;;;;;;10390253;28;20041;-70
2023/04/25 19:08:57;;;;;;;2.30;0.80;;;12.00;91.10;;;;;;10386058;28;21013;-70
2023/04/25 19:13:59;;;;;;;3.20;0.90;;;12.00;91.20;;;;;;10395324;28;20040;-70
2023/04/25 19:19:00;;;;;;;3.03;1.00;;;12.00;91.30;;;;;;10391068;28;20140;-70
2023/04/25 19:24:03;;;;;;;3.40;1.42;;;11.90;91.40;;;;;;10395933;28;20022;-70
2023/04/25 19:29:08;;;;;;;3.35;1.02;;;11.90;91.40;;;;;;10389294;28;20109;-70
2023/04/25 19:34:10;;;;;;;3.20;0.73;;;11.90;91.50;;;;;;10386895;28;20018;-70
2023/04/25 19:39:10;;;;;;;3.42;1.10;;;11.90;91.50;;;;;;10383243;28;20081;-70
2023/04/25 19:44:11;;;;;;;2.95;1.05;;;11.80;91.60;;;;;;10385857;28;20164;-71
2023/04/25 19:49:11;;;;;;;2.47;0.63;;;11.80;91.60;;;;;;10396089;28;20033;-70
2023/04/25 19:54:12;;;;;;;2.25;1.23;;;11.80;91.70;;;;;;10394462;28;20230;-70
2023/04/25 19:59:13;;;;;;;2.83;1.15;;;11.20;91.60;;;;;;10394290;28;20060;-70
2023/04/25 20:04:13;;;;;;;3.60;1.30;;;11.80;91.80;;;;;;10402865;28;20405;-70
2023/04/25 20:09:15;;;;;;;2.95;0.95;;;11.70;91.80;;;;;;10407923;28;20026;-71
2023/04/25 20:14:15;;;;;;;4.75;1.30;;;11.70;91.80;;;;;;10398473;28;20067;-70
2023/04/25 20:19:16;;;;;;;4.40;1.38;;;11.70;91.90;;;;;;10383937;28;20101;-70
2023/04/25 20:24:16;;;;;;;2.60;1.27;;;11.70;91.90;;;;;;10379760;28;20034;-69
2023/04/25 20:29:17;;;;;;;4.35;1.42;;;11.60;91.90;;;;;;10382677;28;20080;-70
2023/04/25 20:34:19;;;;;;;4.35;1.20;;;11.70;91.90;;;;;;10380656;28;20100;-70
2023/04/25 20:39:20;;;;;;;2.83;1.10;;;11.60;91.90;;;;;;10383539;28;20022;-71
2023/04/25 20:44:22;;;;;;;3.40;1.50;;;11.60;91.90;;;;;;10381251;28;20022;-70
2023/04/25 20:49:22;;;;;;;4.97;1.20;;;11.50;91.90;;;;;;10381891;28;20025;-70
2023/04/25 20:54:25;;;;;;;4.03;1.33;;;11.60;92.00;;;;;;10389480;28;20038;-71
2023/04/25 20:59:27;;;;;;;2.58;1.20;;;11.50;91.90;;;;;;10385403;28;20033;-70
2023/04/25 21:04:29;;;;;;;2.42;1.13;;;11.50;92.00;;;;;;10373484;28;20113;-70
2023/04/25 21:09:30;;;;;;;3.97;1.52;;;11.50;92.00;;;;;;10383454;28;20527;-70
2023/04/25 21:14:30;;;;;;;1.52;1.02;;;11.40;91.90;;;;;;10383804;28;20037;-71
2023/04/25 21:19:31;;;;;;;2.78;1.15;;;11.40;91.90;;;;;;10388733;28;20029;-70
2023/04/25 21:24:32;;;;;;;2.78;1.27;;;11.40;91.90;;;;;;10399083;28;20026;-70
2023/04/25 21:29:33;;;;;;;4.70;1.40;;;11.40;91.90;;;;;;10394416;28;20028;-70
2023/04/25 21:34:33;;;;;;;5.47;1.33;;;11.30;91.90;;;;;;10397356;28;20068;-70
2023/04/25 21:39:34;;;;;;;2.13;1.08;;;11.30;91.90;;;;;;10391626;28;20029;-70
2023/04/25 21:44:35;;;;;;;3.22;1.58;;;11.30;91.90;;;;;;10392803;28;20025;-70
2023/04/25 21:49:36;;;;;;;4.05;1.75;;;11.30;91.90;;;;;;10381161;28;20486;-70
2023/04/25 21:54:36;;;;;;;3.50;1.33;;;11.30;91.90;;;;;;10401851;28;20033;-70
2023/04/25 21:59:37;;;;;;;3.55;1.27;;;11.20;91.90;;;;;;10396109;28;20167;-70
2023/04/25 22:04:38;;;;;;;3.00;1.27;;;11.30;91.90;;;;;;10391265;28;20320;-70
2023/04/25 22:09:38;;;;;;;1.80;1.02;;;11.20;91.90;;;;;;10391234;28;20029;-70
2023/04/25 22:14:40;;;;;;;3.10;1.50;;;11.20;91.90;;;;;;10396655;28;20497;-70
2023/04/25 22:19:42;;;;;;;3.17;1.30;;;11.20;91.90;;;;;;10385318;28;20017;-70
2023/04/25 22:24:42;;;;;;;2.90;1.40;;;11.10;91.80;;;;;;10407279;28;20112;-70
2023/04/25 22:29:43;;;;;;;3.40;1.40;;;11.10;91.80;;;;;;10392398;28;20028;-70
2023/04/25 22:34:44;;;;;;;4.80;1.90;;;11.10;91.80;;;;;;10389632;28;20492;-70
2023/04/25 22:39:44;;;;;;;7.13;1.88;;;11.10;91.80;;;;;;10389101;28;20024;-70
2023/04/25 22:44:45;;;;;;;2.75;1.55;;;11.00;91.80;;;;;;10393714;28;20033;-70
2023/04/25 22:49:46;;;;;;;6.32;1.92;;;11.00;91.80;;;;;;10402790;28;20026;-70
2023/04/25 22:54:46;;;;;;;3.45;1.80;;;11.00;91.80;;;;;;10391788;28;20025;-70
2023/04/25 22:59:47;;;;;;;3.03;1.40;;;11.00;91.80;;;;;;10391641;28;20068;-70
2023/04/25 23:04:49;;;;;;;3.80;1.65;;;10.90;91.80;;;;;;10388066;28;20028;-70
2023/04/25 23:09:49;;;;;;;4.22;2.10;;;10.90;91.80;;;;;;10390307;28;20018;-70
2023/04/25 23:14:50;;;;;;;2.92;1.20;;;10.90;91.80;;;;;;10405470;28;20021;-70
2023/04/25 23:19:51;;;;;;;4.15;1.63;;;10.90;91.80;;;;;;10402182;28;20136;-70
2023/04/25 23:24:51;;;;;;;2.38;1.58;;;10.90;91.80;;;;;;10404810;28;20147;-70
2023/04/25 23:29:53;;;;;;;2.78;1.52;;;10.80;91.80;;;;;;10403156;28;20037;-70
2023/04/25 23:34:54;;;;;;;2.72;1.63;;;11.00;91.90;;;;;;10394812;28;20032;-70
2023/04/25 23:39:54;;;;;;;2.15;1.23;;;10.80;91.80;;;;;;10386851;28;20473;-70
2023/04/25 23:44:55;;;;;;;3.17;1.30;;;10.80;91.80;;;;;;10392321;28;20035;-70
2023/04/25 23:49:56;;;;;;;2.85;1.33;;;10.80;91.80;;;;;;10386231;28;20025;-70
2023/04/25 23:54:56;;;;;;;3.50;1.30;;;10.70;91.80;;;;;;10392531;28;20021;-70
2023/04/25 23:59:57;;;;;;;2.58;1.20;;;10.70;91.80;;;;;;10404036;28;20043;-70
